createdAt,value
2017-09-29T00:00:22.735Z,32.30
2017-09-29T00:02:48.902Z,24.40
2017-09-29T00:05:15.056Z,24.83
2017-09-29T00:07:41.224Z,27.40
2017-09-29T00:10:07.432Z,30.80
2017-09-29T00:12:33.672Z,31.57
2017-09-29T00:14:59.845Z,24.80
2017-09-29T00:17:26.035Z,33.77
2017-09-29T00:19:52.961Z,26.93
2017-09-29T00:22:19.919Z,31.40
2017-09-29T00:24:46.098Z,23.63
2017-09-29T00:27:12.266Z,26.30
2017-09-29T00:29:38.450Z,27.20
2017-09-29T00:32:04.664Z,26.90
2017-09-29T00:34:30.871Z,26.23
2017-09-29T00:36:57.055Z,28.63
2017-09-29T00:39:23.215Z,26.87
2017-09-29T00:41:49.403Z,27.83
2017-09-29T00:44:16.413Z,25.60
2017-09-29T00:46:42.591Z,25.87
2017-09-29T00:49:08.815Z,28.37
2017-09-29T00:51:35.045Z,24.03
2017-09-29T00:54:01.283Z,28.40
2017-09-29T00:56:27.646Z,29.33
2017-09-29T00:58:53.858Z,25.10
2017-09-29T01:01:20.113Z,32.77
2017-09-29T01:03:46.331Z,25.37
2017-09-29T01:06:12.584Z,28.10
2017-09-29T01:08:38.848Z,45.87
2017-09-29T01:11:05.051Z,25.90
2017-09-29T01:13:31.298Z,24.90
2017-09-29T01:15:57.510Z,23.30
2017-09-29T01:18:23.713Z,26.80
2017-09-29T01:20:49.919Z,22.00
2017-09-29T01:23:16.167Z,32.20
2017-09-29T01:25:42.402Z,22.47
2017-09-29T01:28:08.629Z,30.70
2017-09-29T01:30:34.819Z,50.83
2017-09-29T01:33:01.099Z,25.90
2017-09-29T01:35:28.063Z,23.97
2017-09-29T01:37:54.236Z,26.80
2017-09-29T01:40:20.508Z,22.00
2017-09-29T01:42:46.763Z,24.53
2017-09-29T01:45:12.962Z,27.83
2017-09-29T01:47:39.979Z,28.83
2017-09-29T01:50:07.251Z,23.20
2017-09-29T01:52:34.233Z,24.07
2017-09-29T01:55:00.478Z,25.60
2017-09-29T01:57:26.722Z,22.03
2017-09-29T01:59:53.635Z,28.10
2017-09-29T02:02:19.838Z,36.63
2017-09-29T02:04:46.016Z,24.30
2017-09-29T02:07:12.196Z,25.90
2017-09-29T02:09:38.375Z,29.80
2017-09-29T02:12:04.581Z,24.13
2017-09-29T02:14:30.825Z,27.70
2017-09-29T02:16:57.765Z,28.43
2017-09-29T02:19:24.729Z,23.53
2017-09-29T02:21:50.955Z,27.87
2017-09-29T02:24:17.177Z,22.00
2017-09-29T02:26:43.409Z,22.20
2017-09-29T02:29:10.485Z,29.67
2017-09-29T02:31:36.710Z,28.70
2017-09-29T02:34:02.911Z,24.07
2017-09-29T02:36:29.129Z,24.53
2017-09-29T02:38:55.326Z,36.27
2017-09-29T02:41:21.556Z,27.50
2017-09-29T02:43:47.739Z,24.33
2017-09-29T02:46:14.719Z,25.40
2017-09-29T02:48:40.917Z,34.30
2017-09-29T02:51:07.854Z,24.80
2017-09-29T02:53:34.008Z,26.73
2017-09-29T02:56:00.947Z,24.90
2017-09-29T02:58:29.256Z,24.33
2017-09-29T03:00:57.118Z,26.27
2017-09-29T03:03:24.271Z,37.50
2017-09-29T03:05:51.211Z,29.73
2017-09-29T03:08:17.373Z,29.33
2017-09-29T03:10:43.530Z,29.50
2017-09-29T03:13:09.734Z,31.60
2017-09-29T03:15:35.917Z,34.97
2017-09-29T03:18:02.106Z,35.17
2017-09-29T03:20:28.283Z,33.50
2017-09-29T03:22:54.500Z,29.63
2017-09-29T03:25:21.404Z,45.83
2017-09-29T03:27:47.648Z,24.60
2017-09-29T03:30:13.898Z,29.10
2017-09-29T03:32:40.062Z,25.40
2017-09-29T03:35:06.271Z,29.37
2017-09-29T03:37:32.565Z,36.47
2017-09-29T03:39:58.718Z,29.33
2017-09-29T03:42:24.944Z,30.70
2017-09-29T03:44:51.905Z,31.77
2017-09-29T03:47:18.143Z,30.70
2017-09-29T03:49:44.969Z,26.67
2017-09-29T03:52:13.389Z,29.80
2017-09-29T03:54:41.096Z,33.93
2017-09-29T03:57:08.100Z,31.17
2017-09-29T03:59:34.296Z,35.63
2017-09-29T04:02:00.486Z,36.27
2017-09-29T04:04:27.423Z,34.00
2017-09-29T04:06:54.356Z,31.70
2017-09-29T04:09:20.594Z,29.60
2017-09-29T04:11:46.777Z,34.80
2017-09-29T04:14:13.087Z,30.63
2017-09-29T04:16:40.067Z,38.87
2017-09-29T04:19:06.282Z,32.97
2017-09-29T04:21:32.513Z,42.17
2017-09-29T04:23:58.723Z,38.83
2017-09-29T04:26:25.120Z,37.93
2017-09-29T04:28:51.279Z,30.93
2017-09-29T04:31:17.506Z,40.70
2017-09-29T04:33:44.448Z,34.03
2017-09-29T04:36:10.694Z,32.83
2017-09-29T04:38:37.049Z,34.90
2017-09-29T04:41:03.381Z,34.97
2017-09-29T04:43:30.339Z,35.03
2017-09-29T04:45:56.579Z,40.57
2017-09-29T04:48:22.789Z,34.30
2017-09-29T04:50:49.097Z,37.13
2017-09-29T04:53:15.279Z,37.83
2017-09-29T04:55:41.453Z,43.13
2017-09-29T04:58:07.663Z,38.00
2017-09-29T05:00:33.857Z,30.40
2017-09-29T05:03:00.068Z,35.10
2017-09-29T05:05:26.314Z,31.17
2017-09-29T05:07:52.475Z,35.97
2017-09-29T05:10:18.766Z,30.33
2017-09-29T05:12:45.131Z,43.77
2017-09-29T05:15:12.136Z,45.17
2017-09-29T05:17:38.359Z,40.37
2017-09-29T05:20:04.581Z,51.57
2017-09-29T05:22:30.794Z,46.23
2017-09-29T05:24:56.970Z,51.57
2017-09-29T05:27:23.176Z,51.53
2017-09-29T05:29:49.353Z,46.33
2017-09-29T05:32:15.540Z,45.93
2017-09-29T05:34:41.827Z,49.20
2017-09-29T05:37:07.966Z,45.70
2017-09-29T05:39:34.237Z,46.63
2017-09-29T05:42:00.449Z,46.90
2017-09-29T05:44:27.363Z,45.07
2017-09-29T05:46:53.560Z,43.30
2017-09-29T05:49:19.727Z,54.27
2017-09-29T05:51:45.940Z,48.63
2017-09-29T05:54:12.162Z,40.17
2017-09-29T05:56:38.387Z,45.10
2017-09-29T05:59:04.554Z,45.40
2017-09-29T06:01:31.457Z,49.13
2017-09-29T06:03:57.620Z,46.63
2017-09-29T06:06:23.903Z,43.83
2017-09-29T06:08:50.092Z,45.63
2017-09-29T06:11:16.304Z,40.80
2017-09-29T06:13:42.580Z,40.43
2017-09-29T06:16:08.792Z,55.33
2017-09-29T06:18:35.067Z,39.33
2017-09-29T06:21:01.440Z,47.70
2017-09-29T06:23:27.615Z,40.67
2017-09-29T06:25:55.876Z,48.67
2017-09-29T06:28:22.109Z,43.33
2017-09-29T06:30:48.339Z,38.33
2017-09-29T06:33:14.674Z,46.07
2017-09-29T06:35:40.906Z,47.70
2017-09-29T06:38:07.151Z,42.90
2017-09-29T06:40:33.352Z,42.33
2017-09-29T06:43:00.354Z,36.97
2017-09-29T06:45:26.618Z,46.03
2017-09-29T06:47:52.799Z,41.17
2017-09-29T06:50:19.079Z,48.43
2017-09-29T06:52:45.233Z,46.30
2017-09-29T06:55:11.598Z,40.70
2017-09-29T06:57:37.965Z,49.23
2017-09-29T07:00:04.988Z,45.43
2017-09-29T07:02:31.145Z,51.60
2017-09-29T07:04:57.328Z,52.10
2017-09-29T07:07:23.833Z,47.20
2017-09-29T07:09:50.080Z,45.20
2017-09-29T07:12:16.271Z,44.33
2017-09-29T07:14:43.338Z,47.00
2017-09-29T07:17:09.590Z,42.33
2017-09-29T07:19:36.532Z,50.23
2017-09-29T07:22:03.917Z,42.80
2017-09-29T07:24:32.648Z,54.67
2017-09-29T07:27:07.127Z,39.77
2017-09-29T07:29:34.393Z,40.70
2017-09-29T07:32:01.452Z,40.80
2017-09-29T07:34:27.648Z,51.90
2017-09-29T07:36:53.951Z,47.90
2017-09-29T07:39:20.188Z,55.60
2017-09-29T07:41:46.524Z,41.40
2017-09-29T07:44:13.439Z,46.27
2017-09-29T07:46:40.767Z,51.90
2017-09-29T07:49:06.941Z,46.43
2017-09-29T07:51:36.358Z,42.83
2017-09-29T07:54:03.546Z,46.70
2017-09-29T07:56:30.973Z,37.33
2017-09-29T07:58:57.191Z,38.27
2017-09-29T08:01:23.437Z,45.53
2017-09-29T08:03:49.681Z,39.33
2017-09-29T08:06:15.888Z,37.93
2017-09-29T08:08:42.128Z,37.37
2017-09-29T08:11:08.396Z,38.50
2017-09-29T08:13:34.783Z,39.33
2017-09-29T08:16:01.057Z,38.20
2017-09-29T08:18:27.391Z,39.03
2017-09-29T08:20:53.666Z,34.30
2017-09-29T08:23:21.191Z,31.00
2017-09-29T08:25:48.603Z,39.43
2017-09-29T08:28:15.236Z,42.50
2017-09-29T08:30:42.057Z,41.30
2017-09-29T08:33:08.271Z,43.23
2017-09-29T08:35:34.508Z,34.83
2017-09-29T08:38:01.750Z,38.20
2017-09-29T08:40:27.955Z,44.20
2017-09-29T08:42:54.127Z,57.87
2017-09-29T08:45:20.322Z,34.33
2017-09-29T08:47:46.508Z,43.67
2017-09-29T08:50:12.699Z,42.70
2017-09-29T08:52:38.917Z,40.53
2017-09-29T08:55:05.200Z,30.13
2017-09-29T08:57:31.568Z,44.87
2017-09-29T08:59:57.735Z,33.77
2017-09-29T09:02:23.928Z,34.00
2017-09-29T09:04:50.120Z,38.10
2017-09-29T09:07:16.312Z,39.37
2017-09-29T09:09:42.478Z,34.97
2017-09-29T09:12:08.680Z,34.13
2017-09-29T09:14:34.864Z,37.20
2017-09-29T09:17:01.123Z,35.40
2017-09-29T09:19:27.294Z,38.47
2017-09-29T09:21:53.475Z,41.80
2017-09-29T09:24:19.697Z,36.83
2017-09-29T09:26:46.177Z,29.97
2017-09-29T09:29:13.695Z,28.83
2017-09-29T09:31:40.968Z,30.73
2017-09-29T09:34:08.226Z,29.60
2017-09-29T09:36:34.416Z,29.70
2017-09-29T09:39:01.078Z,30.87
2017-09-29T09:41:27.269Z,32.73
2017-09-29T09:43:53.489Z,28.33
2017-09-29T09:46:20.420Z,37.27
2017-09-29T09:48:47.467Z,29.10
2017-09-29T09:51:14.024Z,25.90
2017-09-29T09:53:40.231Z,32.67
2017-09-29T09:56:06.599Z,30.33
2017-09-29T09:58:32.920Z,21.77
2017-09-29T10:00:59.111Z,24.80
2017-09-29T10:03:25.327Z,25.10
2017-09-29T10:05:51.977Z,28.53
2017-09-29T10:08:18.431Z,19.63
2017-09-29T10:10:44.904Z,24.33
2017-09-29T10:13:12.045Z,24.40
2017-09-29T10:15:38.354Z,22.00
2017-09-29T10:18:04.501Z,26.70
2017-09-29T10:20:30.716Z,23.80
2017-09-29T10:22:57.144Z,24.67
2017-09-29T10:25:23.399Z,18.40
2017-09-29T10:27:50.377Z,20.33
2017-09-29T10:30:16.571Z,19.10
2017-09-29T10:32:42.789Z,21.00
2017-09-29T10:35:09.316Z,16.77
2017-09-29T10:37:35.498Z,11.97
2017-09-29T10:40:01.745Z,15.57
2017-09-29T10:42:27.940Z,16.90
2017-09-29T10:44:54.104Z,17.23
2017-09-29T10:47:21.151Z,13.70
2017-09-29T10:49:47.304Z,16.13
2017-09-29T10:52:13.494Z,14.23
2017-09-29T10:54:39.666Z,11.93
2017-09-29T10:57:06.571Z,12.90
2017-09-29T10:59:32.795Z,12.63
2017-09-29T11:01:59.179Z,17.40
2017-09-29T11:04:25.506Z,14.83
2017-09-29T11:06:51.691Z,23.73
2017-09-29T11:09:17.900Z,14.20
2017-09-29T11:11:44.135Z,15.00
2017-09-29T11:14:10.330Z,16.17
2017-09-29T11:16:36.674Z,12.03
2017-09-29T11:19:03.068Z,13.43
2017-09-29T11:21:29.255Z,20.83
2017-09-29T11:23:55.498Z,26.57
2017-09-29T11:26:21.694Z,13.40
2017-09-29T11:28:47.882Z,16.17
2017-09-29T11:31:14.163Z,21.33
2017-09-29T11:33:40.312Z,15.60
2017-09-29T11:36:07.301Z,22.37
2017-09-29T11:38:33.477Z,17.70
2017-09-29T11:40:59.812Z,21.13
2017-09-29T11:43:26.196Z,14.47
2017-09-29T11:45:52.425Z,13.60
2017-09-29T11:48:18.598Z,17.40
2017-09-29T11:50:44.797Z,38.63
2017-09-29T11:53:11.140Z,12.53
2017-09-29T11:55:37.300Z,15.30
2017-09-29T11:58:03.487Z,12.73
2017-09-29T12:00:29.737Z,15.57
2017-09-29T12:02:55.928Z,21.23
2017-09-29T12:05:22.171Z,23.33
2017-09-29T12:07:48.389Z,14.13
2017-09-29T12:10:14.589Z,16.23
2017-09-29T12:12:40.789Z,10.90
2017-09-29T12:15:07.024Z,13.90
2017-09-29T12:17:33.267Z,16.90
2017-09-29T12:20:00.216Z,15.57
2017-09-29T12:22:26.562Z,17.00
2017-09-29T12:24:52.774Z,10.43
2017-09-29T12:27:19.076Z,15.57
2017-09-29T12:29:45.485Z,8.73
2017-09-29T12:32:11.737Z,22.80
2017-09-29T12:34:37.945Z,6.53
2017-09-29T12:37:04.159Z,11.23
2017-09-29T12:39:30.366Z,10.33
2017-09-29T12:41:56.616Z,13.33
2017-09-29T12:44:22.820Z,8.57
2017-09-29T12:46:49.005Z,8.17
2017-09-29T12:49:15.195Z,9.70
2017-09-29T12:51:41.427Z,11.47
2017-09-29T12:54:07.681Z,10.70
2017-09-29T12:56:33.858Z,7.10
2017-09-29T12:59:00.050Z,9.60
2017-09-29T13:01:26.285Z,18.33
2017-09-29T13:03:52.464Z,10.37
2017-09-29T13:06:18.716Z,12.03
2017-09-29T13:08:44.947Z,10.97
2017-09-29T13:11:12.212Z,11.93
2017-09-29T13:13:38.456Z,16.57
2017-09-29T13:16:04.651Z,16.63
2017-09-29T13:18:31.019Z,15.60
2017-09-29T13:20:57.248Z,22.50
2017-09-29T13:23:23.452Z,19.23
2017-09-29T13:25:49.620Z,13.27
2017-09-29T13:28:15.875Z,14.37
2017-09-29T13:30:42.062Z,13.77
2017-09-29T13:33:08.275Z,11.30
2017-09-29T13:35:34.519Z,13.07
2017-09-29T13:38:00.780Z,20.37
2017-09-29T13:40:27.023Z,11.90
2017-09-29T13:42:53.259Z,13.00
2017-09-29T13:45:19.450Z,11.90
2017-09-29T13:47:45.613Z,9.43
2017-09-29T13:50:11.938Z,10.33
2017-09-29T13:52:38.151Z,13.10
2017-09-29T13:55:04.362Z,9.23
2017-09-29T13:57:31.034Z,6.80
2017-09-29T13:59:57.260Z,7.50
2017-09-29T14:02:23.396Z,6.10
2017-09-29T14:04:49.755Z,9.10
2017-09-29T14:07:15.962Z,8.87
2017-09-29T14:09:42.220Z,6.53
2017-09-29T14:12:08.565Z,7.30
2017-09-29T14:14:34.807Z,12.03
2017-09-29T14:17:01.060Z,5.20
2017-09-29T14:19:27.389Z,7.60
2017-09-29T14:21:53.639Z,6.87
2017-09-29T14:24:20.569Z,7.30
2017-09-29T14:26:46.731Z,8.60
2017-09-29T14:29:13.104Z,12.87
2017-09-29T14:31:39.288Z,10.20
2017-09-29T14:34:05.696Z,6.50
2017-09-29T14:36:31.916Z,6.77
2017-09-29T14:38:58.091Z,6.93
2017-09-29T14:41:24.318Z,13.40
2017-09-29T14:43:50.565Z,12.03
2017-09-29T14:46:17.643Z,6.60
2017-09-29T14:48:45.013Z,6.97
2017-09-29T14:51:11.295Z,15.30
2017-09-29T14:53:37.520Z,40.97
2017-09-29T14:56:03.782Z,16.17
2017-09-29T14:58:30.072Z,23.50
2017-09-29T15:00:56.345Z,11.70
2017-09-29T15:03:23.322Z,6.63
2017-09-29T15:05:49.771Z,28.63
2017-09-29T15:08:16.766Z,6.27
2017-09-29T15:10:42.978Z,12.00
2017-09-29T15:13:09.187Z,14.37
2017-09-29T15:15:35.366Z,12.90
2017-09-29T15:18:01.529Z,15.70
2017-09-29T15:20:27.735Z,12.50
2017-09-29T15:22:53.919Z,17.50
2017-09-29T15:25:20.254Z,11.67
2017-09-29T15:27:46.503Z,12.70
2017-09-29T15:30:12.759Z,9.27
2017-09-29T15:32:38.960Z,20.67
2017-09-29T15:35:05.208Z,10.30
2017-09-29T15:37:31.404Z,15.53
2017-09-29T15:39:57.647Z,7.67
2017-09-29T15:42:23.900Z,9.97
2017-09-29T15:44:50.057Z,14.40
2017-09-29T15:47:16.252Z,18.63
2017-09-29T15:49:42.575Z,8.90
2017-09-29T15:52:08.870Z,161.07
2017-09-29T15:54:35.313Z,9.43
2017-09-29T15:57:01.486Z,21.30
2017-09-29T15:59:27.743Z,4.27
2017-09-29T16:01:53.931Z,16.73
2017-09-29T16:04:20.130Z,15.73
2017-09-29T16:06:46.416Z,23.03
2017-09-29T16:09:13.350Z,10.50
2017-09-29T16:11:40.405Z,8.10
2017-09-29T16:14:06.587Z,12.00
2017-09-29T16:16:33.823Z,15.70
2017-09-29T16:19:00.086Z,21.03
2017-09-29T16:21:26.339Z,71.33
2017-09-29T16:23:53.030Z,39.57
2017-09-29T16:26:19.235Z,19.27
2017-09-29T16:28:45.386Z,60.80
2017-09-29T16:31:11.573Z,18.57
2017-09-29T16:33:37.764Z,12.73
2017-09-29T16:36:03.925Z,26.07
2017-09-29T16:38:30.280Z,30.00
2017-09-29T16:40:56.467Z,31.90
2017-09-29T16:43:22.691Z,41.47
2017-09-29T16:45:48.891Z,22.83
2017-09-29T16:48:15.087Z,15.77
2017-09-29T16:50:41.270Z,10.53
2017-09-29T16:53:07.578Z,7.20
2017-09-29T16:55:33.789Z,16.93
2017-09-29T16:57:59.996Z,14.47
2017-09-29T17:00:26.250Z,11.70
2017-09-29T17:02:52.460Z,12.27
2017-09-29T17:05:18.635Z,8.70
2017-09-29T17:07:44.844Z,13.43
2017-09-29T17:10:11.070Z,23.20
2017-09-29T17:12:37.219Z,15.47
2017-09-29T17:15:03.389Z,38.63
2017-09-29T17:17:29.574Z,18.60
2017-09-29T17:19:56.540Z,16.17
2017-09-29T17:22:23.513Z,12.07
2017-09-29T17:24:49.815Z,11.30
2017-09-29T17:27:16.048Z,20.67
2017-09-29T17:29:42.255Z,11.00
2017-09-29T17:32:08.464Z,23.93
2017-09-29T17:34:34.861Z,19.60
2017-09-29T17:37:01.083Z,35.20
2017-09-29T17:39:27.302Z,17.37
2017-09-29T17:41:53.531Z,29.23
2017-09-29T17:44:19.732Z,10.87
2017-09-29T17:46:46.034Z,35.23
2017-09-29T17:49:12.298Z,30.90
2017-09-29T17:51:38.543Z,22.50
2017-09-29T17:54:04.795Z,26.40
2017-09-29T17:56:31.018Z,13.30
2017-09-29T17:58:57.309Z,14.97
2017-09-29T18:01:23.542Z,15.47
2017-09-29T18:03:49.731Z,42.80
2017-09-29T18:06:16.002Z,30.40
2017-09-29T18:08:42.230Z,27.97
2017-09-29T18:11:08.428Z,47.67
2017-09-29T18:13:34.875Z,48.17
2017-09-29T18:16:01.097Z,21.60
2017-09-29T18:18:27.344Z,19.10
2017-09-29T18:20:53.606Z,19.17
2017-09-29T18:23:19.831Z,37.53
2017-09-29T18:25:46.043Z,27.50
2017-09-29T18:28:12.245Z,18.17
2017-09-29T18:30:38.431Z,19.73
2017-09-29T18:33:05.333Z,14.63
2017-09-29T18:35:31.528Z,17.33
2017-09-29T18:37:57.856Z,23.70
2017-09-29T18:40:39.268Z,12.27
2017-09-29T18:43:12.219Z,19.50
2017-09-29T18:45:39.199Z,18.30
2017-09-29T18:48:05.386Z,19.77
2017-09-29T18:50:31.634Z,23.77
2017-09-29T18:52:57.802Z,14.03
2017-09-29T18:55:23.948Z,15.13
2017-09-29T18:57:50.112Z,19.50
2017-09-29T19:00:16.295Z,16.30
2017-09-29T19:02:42.468Z,19.73
2017-09-29T19:05:08.668Z,20.23
2017-09-29T19:07:34.840Z,21.77
2017-09-29T19:10:01.058Z,17.30
2017-09-29T19:12:27.222Z,25.73
2017-09-29T19:14:53.386Z,22.40
2017-09-29T19:17:19.557Z,24.90
2017-09-29T19:19:45.714Z,17.10
2017-09-29T19:22:11.938Z,21.27
2017-09-29T19:24:38.190Z,20.40
2017-09-29T19:27:05.300Z,23.40
2017-09-29T19:29:31.527Z,18.50
2017-09-29T19:31:57.681Z,20.07
2017-09-29T19:34:23.880Z,18.70
2017-09-29T19:36:51.084Z,17.27
2017-09-29T19:39:17.354Z,16.20
2017-09-29T19:41:43.523Z,20.57
2017-09-29T19:44:09.671Z,25.97
2017-09-29T19:46:35.814Z,36.00
2017-09-29T19:49:02.716Z,30.17
2017-09-29T19:51:28.846Z,26.03
2017-09-29T19:53:54.999Z,28.40
2017-09-29T19:56:21.133Z,30.90
2017-09-29T19:58:47.298Z,29.97
2017-09-29T20:01:13.451Z,39.50
2017-09-29T20:03:39.627Z,38.20
2017-09-29T20:06:05.766Z,34.53
2017-09-29T20:08:31.903Z,31.77
2017-09-29T20:10:58.059Z,33.60
2017-09-29T20:13:24.930Z,37.77
2017-09-29T20:15:51.085Z,46.77
2017-09-29T20:18:18.046Z,36.73
2017-09-29T20:20:44.258Z,37.70
2017-09-29T20:23:10.413Z,41.47
2017-09-29T20:25:36.623Z,38.30
2017-09-29T20:28:03.567Z,37.93
2017-09-29T20:30:30.325Z,44.10
2017-09-29T20:32:57.191Z,42.17
2017-09-29T20:35:23.347Z,47.03
2017-09-29T20:37:49.488Z,53.77
2017-09-29T20:40:15.736Z,49.63
2017-09-29T20:42:41.931Z,49.00
2017-09-29T20:45:08.094Z,46.23
2017-09-29T20:47:34.317Z,51.47
2017-09-29T20:50:01.258Z,47.90
2017-09-29T20:52:27.471Z,44.03
2017-09-29T20:54:54.532Z,52.17
2017-09-29T20:57:20.712Z,49.87
2017-09-29T20:59:46.976Z,51.60
2017-09-29T21:02:13.196Z,47.60
2017-09-29T21:04:39.439Z,52.40
2017-09-29T21:07:05.696Z,50.77
2017-09-29T21:09:31.899Z,53.47
2017-09-29T21:11:58.153Z,55.43
2017-09-29T21:14:24.355Z,57.60
2017-09-29T21:16:50.489Z,55.40
2017-09-29T21:19:16.696Z,51.50
2017-09-29T21:21:42.875Z,53.20
2017-09-29T21:24:09.054Z,56.30
2017-09-29T21:26:42.467Z,61.90
2017-09-29T21:29:08.680Z,58.93
2017-09-29T21:31:35.016Z,59.83
2017-09-29T21:34:01.403Z,57.07
2017-09-29T21:36:27.585Z,55.93
2017-09-29T21:38:53.786Z,57.43
2017-09-29T21:41:19.958Z,55.47
2017-09-29T21:43:46.212Z,56.10
2017-09-29T21:46:13.211Z,58.77
2017-09-29T21:48:39.424Z,59.33
2017-09-29T21:51:05.598Z,54.80
2017-09-29T21:53:31.794Z,61.47
2017-09-29T21:55:58.023Z,53.83
2017-09-29T21:58:25.044Z,53.93
2017-09-29T22:00:51.254Z,52.50
2017-09-29T22:03:18.137Z,47.40
2017-09-29T22:05:44.294Z,54.97
2017-09-29T22:08:10.450Z,50.43
2017-09-29T22:10:36.744Z,57.80
2017-09-29T22:13:02.950Z,49.30
2017-09-29T22:15:29.960Z,48.03
2017-09-29T22:17:56.321Z,51.50
2017-09-29T22:20:23.220Z,42.10
2017-09-29T22:22:50.208Z,48.23
2017-09-29T22:25:16.414Z,46.23
2017-09-29T22:27:42.574Z,56.47
2017-09-29T22:30:09.456Z,49.43
2017-09-29T22:32:35.654Z,52.97
2017-09-29T22:35:01.812Z,64.97
2017-09-29T22:37:27.986Z,61.00
2017-09-29T22:39:54.174Z,46.67
2017-09-29T22:42:20.359Z,60.77
2017-09-29T22:44:47.287Z,55.93
2017-09-29T22:47:13.463Z,57.07
2017-09-29T22:49:39.631Z,58.73
2017-09-29T22:52:05.831Z,55.67
2017-09-29T22:54:32.043Z,52.47
2017-09-29T22:56:59.047Z,58.30
2017-09-29T22:59:25.255Z,54.43
2017-09-29T23:01:51.488Z,58.50
2017-09-29T23:04:17.703Z,51.70
2017-09-29T23:06:43.884Z,51.23
2017-09-29T23:09:10.087Z,55.50
2017-09-29T23:11:36.260Z,59.23
2017-09-29T23:14:03.212Z,52.90
2017-09-29T23:16:29.364Z,63.13
2017-09-29T23:18:55.530Z,55.53
2017-09-29T23:21:21.722Z,60.13
2017-09-29T23:23:48.699Z,54.83
2017-09-29T23:26:14.873Z,52.80
2017-09-29T23:28:41.763Z,51.60
2017-09-29T23:31:07.905Z,57.77
2017-09-29T23:33:34.798Z,61.00
2017-09-29T23:36:00.981Z,59.90
2017-09-29T23:38:27.126Z,50.77
2017-09-29T23:40:53.327Z,51.40
2017-09-29T23:43:19.475Z,62.10
2017-09-29T23:45:45.623Z,51.17
2017-09-29T23:48:11.791Z,50.80
2017-09-29T23:50:37.964Z,60.53
2017-09-29T23:53:08.764Z,64.13
2017-09-29T23:55:34.996Z,60.37
2017-09-29T23:58:01.192Z,62.87
